Time;durP1;ratioP1;P1;durP2;ratioP2;P2;SDS_P1;SDS_P2;PMS_P1;PMS_P2;Temp;Humidity;BMP_temperature;BMP_pressure;BME280_temperature;BME280_humidity;BME280_pressure;Samples;Min_cycle;Max_cycle;Signal;HPM_P1;HPM_P2
2022/03/17 00:08:35;;;;;;;27.27;4.90;;;12.80;65.40;;;;;;20672698;28;20050;-67
2022/03/17 00:18:37;;;;;;;21.48;4.00;;;12.80;65.40;;;;;;20672672;28;20050;-68
2022/03/17 00:28:39;;;;;;;27.45;3.95;;;12.80;65.20;;;;;;20669750;28;20058;-65
2022/03/17 00:38:40;;;;;;;21.70;4.03;;;12.90;64.90;;;;;;20670050;28;20054;-65
2022/03/17 00:48:42;;;;;;;39.75;4.57;;;12.80;64.70;;;;;;20670604;28;20056;-66
2022/03/17 00:58:45;;;;;;;26.27;3.25;;;12.80;64.50;;;;;;20669451;28;20054;-65
2022/03/17 01:08:47;;;;;;;35.85;3.30;;;12.70;64.50;;;;;;20668857;28;20058;-67
2022/03/17 01:18:49;;;;;;;22.05;3.20;;;12.70;64.80;;;;;;20668188;28;20088;-62
2022/03/17 01:28:52;;;;;;;22.35;3.15;;;12.60;64.90;;;;;;20666641;28;20080;-65
2022/03/17 01:38:59;;;;;;;22.48;2.97;;;12.50;64.90;;;;;;20686589;28;20530;-67
2022/03/17 01:49:01;;;;;;;17.58;2.53;;;12.50;64.80;;;;;;20693154;28;20081;-65
2022/03/17 01:59:02;;;;;;;18.23;2.10;;;12.60;64.60;;;;;;20693057;28;20054;-66
2022/03/17 02:09:05;;;;;;;22.33;2.67;;;12.60;64.30;;;;;;20692242;28;20050;-65
2022/03/17 02:19:07;;;;;;;19.50;3.63;;;12.60;64.10;;;;;;20692667;28;20057;-66
2022/03/17 02:29:12;;;;;;;13.80;2.05;;;12.60;63.80;;;;;;20691588;28;20042;-68
2022/03/17 02:39:16;;;;;;;35.38;3.55;;;12.50;63.20;;;;;;20691360;28;20148;-66
2022/03/17 02:49:26;;;;;;;22.67;2.80;;;12.40;62.30;;;;;;20682205;28;20062;-68
2022/03/17 02:59:31;;;;;;;18.10;1.63;;;12.50;62.40;;;;;;20678566;28;20475;-66
2022/03/17 03:09:37;;;;;;;197.05;33.60;;;12.40;62.30;;;;;;20677362;28;20046;-67
2022/03/17 03:19:43;;;;;;;7.23;1.63;;;12.40;62.30;;;;;;20676721;28;20062;-70
2022/03/17 03:29:47;;;;;;;7.78;1.10;;;12.30;62.30;;;;;;20675316;28;20138;-67
2022/03/17 03:39:52;;;;;;;16.63;1.25;;;12.30;61.80;;;;;;20675478;28;20052;-66
2022/03/17 03:49:54;;;;;;;5.90;0.70;;;12.30;61.50;;;;;;20674287;28;20047;-67
2022/03/17 03:59:57;;;;;;;8.30;0.90;;;12.20;61.60;;;;;;20674813;28;20046;-66
2022/03/17 04:10:01;;;;;;;7.63;0.80;;;12.20;62.40;;;;;;20672726;28;20142;-68
2022/03/17 04:20:05;;;;;;;9.00;1.13;;;12.20;62.30;;;;;;20672424;28;20050;-70
2022/03/17 04:30:08;;;;;;;5.97;1.25;;;12.20;62.10;;;;;;20670893;28;20057;-69
2022/03/17 04:40:11;;;;;;;10.60;1.20;;;12.20;61.90;;;;;;20671042;28;20042;-69
2022/03/17 04:50:18;;;;;;;12.82;1.20;;;12.10;61.50;;;;;;20669562;28;20490;-68
2022/03/17 05:00:20;;;;;;;5.32;1.27;;;12.20;61.10;;;;;;20669576;28;20047;-67
2022/03/17 05:10:35;;;;;;;7.20;1.45;;;12.10;61.20;;;;;;20668005;28;20046;-66
2022/03/17 05:20:40;;;;;;;10.32;1.40;;;12.10;61.10;;;;;;20668591;28;20085;-66
2022/03/17 05:30:44;;;;;;;11.07;1.50;;;12.10;60.80;;;;;;20667251;28;20468;-67
2022/03/17 05:40:47;;;;;;;10.85;1.30;;;12.10;60.50;;;;;;20666636;28;20056;-66
2022/03/17 05:50:49;;;;;;;17.60;4.75;;;12.10;60.90;;;;;;20667042;28;20542;-65
2022/03/17 06:00:54;;;;;;;13.35;1.75;;;;;;;;;;20666327;28;20133;-67
2022/03/17 06:10:57;;;;;;;9.55;1.13;;;12.00;60.60;;;;;;20666590;28;20058;-67
2022/03/17 06:20:59;;;;;;;8.75;1.52;;;11.90;60.20;;;;;;20669404;28;20050;-65
2022/03/17 06:31:01;;;;;;;9.88;1.42;;;11.90;59.80;;;;;;20683494;28;20054;-68
2022/03/17 06:41:03;;;;;;;9.68;1.25;;;11.90;59.80;;;;;;20682111;28;20133;-67
2022/03/17 06:51:06;;;;;;;9.32;0.98;;;11.80;60.90;;;;;;20679821;28;20054;-66
2022/03/17 07:01:08;;;;;;;3.80;0.70;;;11.70;61.90;;;;;;20678941;28;20046;-64
2022/03/17 07:11:09;;;;;;;2.25;0.45;;;11.60;62.30;;;;;;20682022;28;20046;-65
2022/03/17 07:21:14;;;;;;;2.22;0.30;;;11.40;62.50;;;;;;20688211;28;20061;-66
2022/03/17 07:31:17;;;;;;;4.38;0.52;;;11.40;62.80;;;;;;20676065;28;20061;-67
2022/03/17 07:41:21;;;;;;;4.38;0.68;;;11.30;63.30;;;;;;20673255;28;20166;-68
2022/03/17 07:51:25;;;;;;;4.53;1.42;;;11.20;64.40;;;;;;20673943;28;20225;-66
2022/03/17 08:01:27;;;;;;;5.22;1.00;;;11.20;64.80;;;;;;20673066;28;20222;-66
2022/03/17 08:11:29;;;;;;;3.70;0.95;;;11.30;64.90;;;;;;20672951;28;20549;-64
2022/03/17 08:21:31;;;;;;;2.58;0.40;;;11.40;64.30;;;;;;20670942;28;20581;-64
2022/03/17 08:31:33;;;;;;;2.55;0.45;;;11.50;63.20;;;;;;20670875;28;20050;-65
2022/03/17 08:41:34;;;;;;;1.88;0.22;;;11.60;62.30;;;;;;20669021;28;20054;-66
2022/03/17 08:51:37;;;;;;;1.95;0.40;;;11.60;61.50;;;;;;20670398;28;20545;-64
2022/03/17 09:01:38;;;;;;;3.13;0.50;;;11.70;61.30;;;;;;20669533;28;20082;-65
2022/03/17 09:11:40;;;;;;;3.55;0.40;;;11.70;61.00;;;;;;20668592;28;20046;-64
2022/03/17 09:21:42;;;;;;;2.53;0.38;;;11.80;60.80;;;;;;20667304;28;20050;-64
2022/03/17 09:31:44;;;;;;;1.25;0.30;;;11.90;60.30;;;;;;20666904;28;20514;-64
2022/03/17 09:41:45;;;;;;;1.65;0.40;;;12.00;59.60;;;;;;20666118;28;20491;-64
2022/03/17 09:51:49;;;;;;;1.00;0.25;;;12.10;59.10;;;;;;20665327;28;20054;-65
2022/03/17 10:01:52;;;;;;;8.25;0.40;;;12.30;58.70;;;;;;20680802;28;20054;-64
2022/03/17 10:12:06;;;;;;;2.88;0.20;;;12.20;58.50;;;;;;20681971;28;20058;-64
2022/03/17 10:22:14;;;;;;;1.48;0.32;;;12.20;58.80;;;;;;20680594;28;20054;-63
2022/03/17 10:32:17;;;;;;;3.50;0.40;;;12.20;58.40;;;;;;20676831;28;20107;-60
2022/03/17 10:42:26;;;;;;;0.95;0.20;;;12.30;59.20;;;;;;20668351;28;20046;-63
2022/03/17 10:52:49;;;;;;;0.30;0.20;;;12.10;60.20;;;;;;20628228;28;20138;-62
2022/03/17 11:02:56;;;;;;;31.10;1.00;;;12.40;60.10;;;;;;20597376;28;20510;-59
2022/03/17 11:13:04;;;;;;;0.50;0.20;;;12.30;59.90;;;;;;20596445;28;20062;-61
2022/03/17 11:23:21;;;;;;;129.73;5.38;;;12.30;59.20;;;;;;20595272;28;20511;-61
2022/03/17 11:33:37;;;;;;;0.43;0.15;;;12.40;58.80;;;;;;20594848;28;20055;-61
2022/03/17 11:43:45;;;;;;;42.05;8.27;;;12.60;59.10;;;;;;20606118;28;20117;-62
2022/03/17 11:53:53;;;;;;;0.25;0.13;;;12.80;59.00;;;;;;20601535;28;20084;-61
2022/03/17 12:03:59;;;;;;;0.85;0.10;;;13.10;58.40;;;;;;20608372;28;20070;-62
2022/03/17 12:14:17;;;;;;;2.58;0.40;;;13.30;57.90;;;;;;20673395;28;20054;-69
2022/03/17 12:24:35;;;;;;;1.42;0.30;;;13.50;56.90;;;;;;20671713;28;20570;-61
2022/03/17 12:34:38;;;;;;;2.10;0.30;;;13.70;55.60;;;;;;20669934;28;20601;-63
2022/03/17 12:44:56;;;;;;;2.03;0.22;;;13.70;55.60;;;;;;20669706;28;20073;-64
2022/03/17 12:54:59;;;;;;;1.50;0.30;;;13.70;57.30;;;;;;20667920;28;20057;-62
2022/03/17 13:06:53;;;;;;;2.00;0.38;;;13.70;57.10;;;;;;20668421;28;20050;-65
2022/03/17 13:15:26;;;;;;;1.08;0.52;;;13.70;57.40;;;;;;20663717;28;20129;-66
2022/03/17 13:25:31;;;;;;;148.32;18.02;;;13.60;57.40;;;;;;20666401;28;20058;-68
2022/03/17 13:35:37;;;;;;;0.98;0.40;;;13.80;56.20;;;;;;20667766;28;20050;-65
2022/03/17 13:45:41;;;;;;;3.40;0.60;;;13.70;54.90;;;;;;20668826;28;20050;-62
2022/03/17 13:55:54;;;;;;;2.47;0.40;;;13.80;54.10;;;;;;20667046;28;20050;-66
2022/03/17 14:06:04;;;;;;;2.60;0.47;;;14.00;53.50;;;;;;20665644;28;20054;-67
2022/03/17 14:16:09;;;;;;;0.80;0.35;;;13.90;53.10;;;;;;20665727;28;20047;-61
2022/03/17 14:26:11;;;;;;;0.50;0.22;;;14.00;53.00;;;;;;20666872;28;20055;-66
2022/03/17 14:36:13;;;;;;;0.98;0.32;;;14.20;52.90;;;;;;20668604;28;20054;-67
2022/03/17 14:46:15;;;;;;;1.70;0.60;;;14.30;52.50;;;;;;20676886;28;20100;-65
2022/03/17 14:56:19;;;;;;;2.53;0.98;;;14.30;52.10;;;;;;20680979;28;20138;-67
2022/03/17 15:06:22;;;;;;;15.48;4.15;;;14.40;52.00;;;;;;20675560;28;20076;-63
2022/03/17 15:16:24;;;;;;;1.30;0.80;;;14.40;51.80;;;;;;20676611;28;20372;-65
2022/03/17 15:26:26;;;;;;;129.52;42.70;;;14.40;51.30;;;;;;20676397;28;20389;-63
2022/03/17 15:36:28;;;;;;;0.73;0.20;;;14.40;51.20;;;;;;20676403;28;20058;-68
2022/03/17 15:46:30;;;;;;;0.30;0.10;;;14.40;51.30;;;;;;20675671;28;20400;-68
2022/03/17 15:56:32;;;;;;;0.65;0.20;;;14.40;51.10;;;;;;20690090;28;20047;-67
2022/03/17 16:06:34;;;;;;;0.60;0.20;;;14.40;51.10;;;;;;20676128;28;20046;-68
2022/03/17 16:16:38;;;;;;;0.40;0.10;;;14.40;51.10;;;;;;20675471;28;20098;-64
2022/03/17 16:26:39;;;;;;;0.30;0.20;;;14.30;51.30;;;;;;20689676;28;20530;-67
2022/03/17 16:36:44;;;;;;;0.55;0.20;;;14.30;51.00;;;;;;20677150;28;20054;-66
2022/03/17 16:46:47;;;;;;;1.48;0.30;;;14.20;50.80;;;;;;20674425;28;20068;-67
2022/03/17 16:56:49;;;;;;;1.60;0.20;;;14.10;51.40;;;;;;20672214;28;20050;-65
2022/03/17 17:06:51;;;;;;;1.85;0.65;;;14.10;51.70;;;;;;20671972;28;20085;-64
2022/03/17 17:16:54;;;;;;;1.50;0.68;;;14.00;52.10;;;;;;20671206;28;20054;-65
2022/03/17 17:37:15;;;;;;;3.22;0.30;;;13.70;52.30;;;;;;20669607;28;20055;-66
2022/03/17 17:47:22;;;;;;;2.85;0.20;;;13.50;52.10;;;;;;20668931;28;20043;-65
2022/03/17 17:57:23;;;;;;;0.20;0.10;;;13.30;52.40;;;;;;20668657;28;20050;-64
2022/03/17 18:07:25;;;;;;;0.82;0.22;;;13.20;52.60;;;;;;20666880;28;20046;-65
2022/03/17 18:17:26;;;;;;;0.70;0.32;;;13.00;52.80;;;;;;20672094;28;20483;-63
2022/03/17 18:27:28;;;;;;;0.77;0.30;;;12.90;53.20;;;;;;20678619;28;20054;-62
2022/03/17 18:37:29;;;;;;;2.55;0.32;;;12.70;53.70;;;;;;20679343;28;20130;-61
2022/03/17 18:47:31;;;;;;;8.27;3.17;;;12.70;53.90;;;;;;20679313;28;20050;-61
2022/03/17 18:57:34;;;;;;;2.85;0.35;;;12.50;54.50;;;;;;20679415;28;20101;-61
2022/03/17 19:07:37;;;;;;;2.40;0.20;;;12.40;54.30;;;;;;20676056;28;20046;-60
2022/03/17 19:17:39;;;;;;;3.25;1.00;;;12.40;53.40;;;;;;20673343;28;20049;-66
2022/03/17 19:27:42;;;;;;;0.73;0.30;;;12.30;52.60;;;;;;20672349;28;20050;-61
2022/03/17 19:37:46;;;;;;;1.73;0.45;;;12.20;52.40;;;;;;20672242;28;20130;-60
2022/03/17 19:47:48;;;;;;;0.52;0.22;;;12.20;52.30;;;;;;20672036;28;20054;-61
2022/03/17 19:57:49;;;;;;;1.20;0.38;;;12.10;52.30;;;;;;20673788;28;20058;-58
2022/03/17 20:07:51;;;;;;;3.90;0.60;;;12.60;51.70;;;;;;20672644;28;20053;-59
2022/03/17 20:17:53;;;;;;;1.35;0.70;;;12.20;52.60;;;;;;20673140;28;20054;-60
2022/03/17 20:27:54;;;;;;;0.85;0.40;;;12.20;52.90;;;;;;20668754;28;20090;-61
2022/03/17 20:37:56;;;;;;;3.83;1.30;;;12.00;53.30;;;;;;20670063;28;20157;-61
2022/03/17 20:47:59;;;;;;;1.58;0.73;;;12.00;53.50;;;;;;20669808;28;20061;-60
2022/03/17 20:58:00;;;;;;;1.52;0.60;;;11.80;53.80;;;;;;20668220;28;20494;-60
2022/03/17 21:08:02;;;;;;;2.10;0.88;;;11.70;53.90;;;;;;20668370;28;20173;-60
2022/03/17 21:18:04;;;;;;;0.68;0.22;;;11.70;53.80;;;;;;20667886;28;20403;-61
2022/03/17 21:28:05;;;;;;;1.20;0.43;;;11.60;53.80;;;;;;20667186;28;20396;-61
2022/03/17 21:38:09;;;;;;;2.55;0.40;;;11.50;54.00;;;;;;20668960;28;20765;-61
2022/03/17 21:48:11;;;;;;;2.42;0.90;;;11.40;54.40;;;;;;20670569;28;20147;-62
2022/03/17 21:58:12;;;;;;;2.03;0.55;;;11.40;54.50;;;;;;20682890;28;20050;-64
2022/03/17 22:08:17;;;;;;;2.72;0.80;;;11.30;55.10;;;;;;20682214;28;20070;-63
2022/03/17 22:18:19;;;;;;;3.83;1.00;;;11.30;55.50;;;;;;20682531;28;20478;-62
2022/03/17 22:28:21;;;;;;;3.20;0.85;;;11.40;55.40;;;;;;20680379;28;20066;-64
2022/03/17 22:38:23;;;;;;;15.10;1.67;;;11.40;55.40;;;;;;20680330;28;20046;-61
2022/03/17 22:48:25;;;;;;;12.30;1.13;;;11.40;55.50;;;;;;20679426;28;20046;-62
2022/03/17 22:58:26;;;;;;;229.10;77.65;;;11.40;55.60;;;;;;20679344;28;20495;-61
2022/03/17 23:08:28;;;;;;;231.48;84.63;;;11.20;55.80;;;;;;20676545;28;20074;-61
2022/03/17 23:18:29;;;;;;;8.82;0.57;;;11.00;56.30;;;;;;20677425;28;20133;-62
2022/03/17 23:28:32;;;;;;;3.78;0.60;;;11.00;56.60;;;;;;20675943;28;20047;-63
2022/03/17 23:38:39;;;;;;;9.90;2.90;;;10.80;57.40;;;;;;20675720;28;20050;-61
2022/03/17 23:48:41;;;;;;;3.70;0.73;;;10.70;57.40;;;;;;20674315;28;20124;-60
2022/03/17 23:58:42;;;;;;;0.88;0.38;;;10.70;57.60;;;;;;20673907;28;20491;-61
